sensor_id;sensor_type;location;lat;lon;timestamp;pressure;altitude;pressure_sealevel;temperature;humidity
64544;BME280;50936;51.660;5.616;2023-05-02T00:02:04;101631.94;;;11.36;100.00
64544;BME280;50936;51.660;5.616;2023-05-02T00:04:32;101638.91;;;11.40;100.00
64544;BME280;50936;51.660;5.616;2023-05-02T00:06:59;101637.16;;;11.39;100.00
64544;BME280;50936;51.660;5.616;2023-05-02T00:09:26;101638.31;;;11.35;100.00
64544;BME280;50936;51.660;5.616;2023-05-02T00:11:54;101645.38;;;11.38;100.00
64544;BME280;50936;51.660;5.616;2023-05-02T00:14:21;101643.53;;;11.38;100.00
64544;BME280;50936;51.660;5.616;2023-05-02T00:16:48;101646.25;;;11.38;100.00
64544;BME280;50936;51.660;5.616;2023-05-02T00:19:15;101647.47;;;11.32;100.00
64544;BME280;50936;51.660;5.616;2023-05-02T00:21:42;101648.72;;;11.27;100.00
64544;BME280;50936;51.660;5.616;2023-05-02T00:24:09;101646.97;;;11.26;100.00
64544;BME280;50936;51.660;5.616;2023-05-02T00:26:36;101657.94;;;11.23;100.00
64544;BME280;50936;51.660;5.616;2023-05-02T00:29:03;101655.38;;;11.21;100.00
64544;BME280;50936;51.660;5.616;2023-05-02T00:31:30;101652.75;;;11.20;100.00
64544;BME280;50936;51.660;5.616;2023-05-02T00:33:57;101649.06;;;11.21;100.00
64544;BME280;50936;51.660;5.616;2023-05-02T00:36:24;101654.38;;;11.22;100.00
64544;BME280;50936;51.660;5.616;2023-05-02T00:38:52;101650.66;;;11.25;100.00
64544;BME280;50936;51.660;5.616;2023-05-02T00:41:19;101654.47;;;11.21;100.00
64544;BME280;50936;51.660;5.616;2023-05-02T00:43:45;101656.59;;;11.15;100.00
64544;BME280;50936;51.660;5.616;2023-05-02T00:46:13;101661.91;;;11.17;100.00
64544;BME280;50936;51.660;5.616;2023-05-02T00:48:40;101655.38;;;11.21;100.00
64544;BME280;50936;51.660;5.616;2023-05-02T00:51:08;101661.81;;;11.18;100.00
64544;BME280;50936;51.660;5.616;2023-05-02T00:53:38;101662.00;;;11.15;100.00
64544;BME280;50936;51.660;5.616;2023-05-02T00:56:07;101663.75;;;11.16;100.00
64544;BME280;50936;51.660;5.616;2023-05-02T00:58:35;101662.97;;;11.14;100.00
64544;BME280;50936;51.660;5.616;2023-05-02T01:01:14;101665.66;;;11.14;100.00
64544;BME280;50936;51.660;5.616;2023-05-02T01:04:16;101657.13;;;11.06;100.00
64544;BME280;50936;51.660;5.616;2023-05-02T01:07:22;101659.41;;;10.98;100.00
64544;BME280;50936;51.660;5.616;2023-05-02T01:10:13;101662.28;;;10.95;100.00
64544;BME280;50936;51.660;5.616;2023-05-02T01:15:38;101655.75;;;10.99;100.00
64544;BME280;50936;51.660;5.616;2023-05-02T01:18:08;101652.25;;;10.97;100.00
64544;BME280;50936;51.660;5.616;2023-05-02T01:20:41;101650.34;;;10.99;100.00
64544;BME280;50936;51.660;5.616;2023-05-02T01:29:06;101658.38;;;10.85;100.00
64544;BME280;50936;51.660;5.616;2023-05-02T01:31:37;101663.09;;;10.81;100.00
64544;BME280;50936;51.660;5.616;2023-05-02T01:34:09;101655.25;;;10.76;100.00
64544;BME280;50936;51.660;5.616;2023-05-02T01:36:40;101660.84;;;10.73;100.00
64544;BME280;50936;51.660;5.616;2023-05-02T01:39:13;101659.69;;;10.77;100.00
64544;BME280;50936;51.660;5.616;2023-05-02T01:41:51;101675.03;;;10.77;100.00
64544;BME280;50936;51.660;5.616;2023-05-02T01:44:22;101674.16;;;10.76;100.00
64544;BME280;50936;51.660;5.616;2023-05-02T01:46:52;101680.34;;;10.78;100.00
64544;BME280;50936;51.660;5.616;2023-05-02T01:49:22;101665.19;;;10.76;100.00
64544;BME280;50936;51.660;5.616;2023-05-02T01:51:51;101677.75;;;10.77;100.00
64544;BME280;50936;51.660;5.616;2023-05-02T01:54:20;101671.28;;;10.79;100.00
64544;BME280;50936;51.660;5.616;2023-05-02T01:56:50;101682.25;;;10.76;100.00
64544;BME280;50936;51.660;5.616;2023-05-02T01:59:21;101686.88;;;10.74;100.00
64544;BME280;50936;51.660;5.616;2023-05-02T02:01:51;101687.03;;;10.71;100.00
64544;BME280;50936;51.660;5.616;2023-05-02T02:04:20;101694.38;;;10.69;100.00
64544;BME280;50936;51.660;5.616;2023-05-02T02:06:57;101693.59;;;10.67;100.00
64544;BME280;50936;51.660;5.616;2023-05-02T02:09:29;101704.22;;;10.70;100.00
64544;BME280;50936;51.660;5.616;2023-05-02T02:15:07;101695.97;;;10.73;100.00
64544;BME280;50936;51.660;5.616;2023-05-02T02:17:43;101703.97;;;10.75;100.00
64544;BME280;50936;51.660;5.616;2023-05-02T02:20:14;101704.22;;;10.70;100.00
64544;BME280;50936;51.660;5.616;2023-05-02T02:22:43;101700.56;;;10.71;100.00
64544;BME280;50936;51.660;5.616;2023-05-02T02:25:14;101697.69;;;10.74;100.00
64544;BME280;50936;51.660;5.616;2023-05-02T02:27:43;101703.38;;;10.70;100.00
64544;BME280;50936;51.660;5.616;2023-05-02T02:30:10;101704.22;;;10.70;100.00
64544;BME280;50936;51.660;5.616;2023-05-02T02:32:38;101712.34;;;10.70;100.00
64544;BME280;50936;51.660;5.616;2023-05-02T02:35:05;101706.16;;;10.68;100.00
64544;BME280;50936;51.660;5.616;2023-05-02T02:37:49;101703.38;;;10.70;100.00
64544;BME280;50936;51.660;5.616;2023-05-02T02:40:28;101710.25;;;10.75;100.00
64544;BME280;50936;51.660;5.616;2023-05-02T02:43:11;101706.56;;;10.76;100.00
64544;BME280;50936;51.660;5.616;2023-05-02T02:52:01;101721.66;;;10.81;100.00
64544;BME280;50936;51.660;5.616;2023-05-02T02:54:40;101709.91;;;10.82;100.00
64544;BME280;50936;51.660;5.616;2023-05-02T02:57:14;101721.84;;;10.77;100.00
64544;BME280;50936;51.660;5.616;2023-05-02T03:02:31;101722.53;;;10.81;100.00
64544;BME280;50936;51.660;5.616;2023-05-02T03:05:01;101720.63;;;10.83;100.00
64544;BME280;50936;51.660;5.616;2023-05-02T03:07:30;101738.75;;;10.81;100.00
64544;BME280;50936;51.660;5.616;2023-05-02T03:10:02;101740.31;;;10.85;100.00
64544;BME280;50936;51.660;5.616;2023-05-02T03:12:32;101743.97;;;10.84;100.00
64544;BME280;50936;51.660;5.616;2023-05-02T03:18:21;101752.00;;;10.86;100.00
64544;BME280;50936;51.660;5.616;2023-05-02T03:20:49;101752.28;;;10.81;100.00
64544;BME280;50936;51.660;5.616;2023-05-02T03:23:16;101765.94;;;10.78;100.00
64544;BME280;50936;51.660;5.616;2023-05-02T03:25:43;101772.81;;;10.68;100.00
64544;BME280;50936;51.660;5.616;2023-05-02T03:28:15;101773.41;;;10.57;100.00
64544;BME280;50936;51.660;5.616;2023-05-02T03:30:45;101779.47;;;10.45;100.00
64544;BME280;50936;51.660;5.616;2023-05-02T03:33:11;101774.00;;;10.29;100.00
64544;BME280;50936;51.660;5.616;2023-05-02T03:35:42;101776.16;;;10.22;100.00
64544;BME280;50936;51.660;5.616;2023-05-02T03:38:11;101789.81;;;10.19;100.00
64544;BME280;50936;51.660;5.616;2023-05-02T03:40:37;101786.13;;;10.20;100.00
64544;BME280;50936;51.660;5.616;2023-05-02T03:43:08;101784.06;;;10.25;100.00
64544;BME280;50936;51.660;5.616;2023-05-02T03:45:35;101797.66;;;10.24;100.00
64544;BME280;50936;51.660;5.616;2023-05-02T03:48:02;101796.63;;;10.26;100.00
64544;BME280;50936;51.660;5.616;2023-05-02T03:50:29;101793.75;;;10.29;100.00
64544;BME280;50936;51.660;5.616;2023-05-02T03:52:56;101784.50;;;10.35;100.00
64544;BME280;50936;51.660;5.616;2023-05-02T03:55:41;101792.50;;;10.36;100.00
64544;BME280;50936;51.660;5.616;2023-05-02T03:58:14;101798.09;;;10.33;100.00
64544;BME280;50936;51.660;5.616;2023-05-02T04:00:41;101801.66;;;10.34;100.00
64544;BME280;50936;51.660;5.616;2023-05-02T04:03:08;101800.97;;;10.29;100.00
64544;BME280;50936;51.660;5.616;2023-05-02T04:05:39;101803.69;;;10.29;100.00
64544;BME280;50936;51.660;5.616;2023-05-02T04:08:07;101807.25;;;10.29;100.00
64544;BME280;50936;51.660;5.616;2023-05-02T04:10:36;101817.44;;;10.24;100.00
64544;BME280;50936;51.660;5.616;2023-05-02T04:13:05;101818.25;;;10.26;100.00
64544;BME280;50936;51.660;5.616;2023-05-02T04:15:34;101817.44;;;10.24;100.00
64544;BME280;50936;51.660;5.616;2023-05-02T04:18:01;101823.63;;;10.26;100.00
64544;BME280;50936;51.660;5.616;2023-05-02T04:20:29;101822.34;;;10.16;100.00
64544;BME280;50936;51.660;5.616;2023-05-02T04:22:56;101826.19;;;10.12;100.00
64544;BME280;50936;51.660;5.616;2023-05-02T04:25:24;101827.91;;;10.13;100.00
64544;BME280;50936;51.660;5.616;2023-05-02T04:27:54;101831.72;;;10.09;100.00
64544;BME280;50936;51.660;5.616;2023-05-02T04:30:23;101837.31;;;10.06;100.00
64544;BME280;50936;51.660;5.616;2023-05-02T04:33:04;101839.50;;;9.97;100.00
64544;BME280;50936;51.660;5.616;2023-05-02T04:35:34;101845.78;;;9.98;100.00
64544;BME280;50936;51.660;5.616;2023-05-02T04:38:03;101855.69;;;9.97;100.00
64544;BME280;50936;51.660;5.616;2023-05-02T04:40:30;101855.38;;;10.03;100.00
64544;BME280;50936;51.660;5.616;2023-05-02T04:43:02;101865.56;;;10.16;100.00
64544;BME280;50936;51.660;5.616;2023-05-02T04:45:38;101866.97;;;10.23;100.00
64544;BME280;50936;51.660;5.616;2023-05-02T04:48:11;101865.06;;;10.25;100.00
64544;BME280;50936;51.660;5.616;2023-05-02T04:50:38;101866.38;;;10.35;100.00
64544;BME280;50936;51.660;5.616;2023-05-02T04:53:05;101863.13;;;10.46;100.00
64544;BME280;50936;51.660;5.616;2023-05-02T04:55:32;101870.66;;;10.57;100.00
64544;BME280;50936;51.660;5.616;2023-05-02T04:57:59;101870.00;;;10.69;100.00
64544;BME280;50936;51.660;5.616;2023-05-02T05:00:26;101882.84;;;10.82;100.00
64544;BME280;50936;51.660;5.616;2023-05-02T05:02:54;101890.59;;;10.88;100.00
64544;BME280;50936;51.660;5.616;2023-05-02T05:05:21;101896.56;;;10.94;100.00
64544;BME280;50936;51.660;5.616;2023-05-02T05:07:48;101892.38;;;10.89;100.00
64544;BME280;50936;51.660;5.616;2023-05-02T05:10:16;101894.94;;;10.74;100.00
64544;BME280;50936;51.660;5.616;2023-05-02T05:12:45;101903.69;;;10.62;100.00
64544;BME280;50936;51.660;5.616;2023-05-02T05:15:13;101904.03;;;10.56;100.00
64544;BME280;50936;51.660;5.616;2023-05-02T05:17:44;101909.69;;;10.51;100.00
64544;BME280;50936;51.660;5.616;2023-05-02T05:20:11;101914.19;;;10.51;100.00
64544;BME280;50936;51.660;5.616;2023-05-02T05:22:39;101915.53;;;10.42;100.00
64544;BME280;50936;51.660;5.616;2023-05-02T05:25:10;101917.38;;;10.42;100.00
64544;BME280;50936;51.660;5.616;2023-05-02T05:27:37;101927.94;;;10.46;100.00
64544;BME280;50936;51.660;5.616;2023-05-02T05:30:07;101923.25;;;10.50;100.00
64544;BME280;50936;51.660;5.616;2023-05-02T05:32:37;101927.06;;;10.46;100.00
64544;BME280;50936;51.660;5.616;2023-05-02T05:35:05;101925.47;;;10.42;100.00
64544;BME280;50936;51.660;5.616;2023-05-02T05:37:34;101933.44;;;10.45;100.00
64544;BME280;50936;51.660;5.616;2023-05-02T05:40:07;101933.03;;;10.52;100.00
64544;BME280;50936;51.660;5.616;2023-05-02T05:42:36;101939.00;;;10.59;100.00
64544;BME280;50936;51.660;5.616;2023-05-02T05:45:09;101936.28;;;10.59;100.00
64544;BME280;50936;51.660;5.616;2023-05-02T05:47:36;101939.00;;;10.59;100.00
64544;BME280;50936;51.660;5.616;2023-05-02T05:50:04;101938.28;;;10.55;100.00
64544;BME280;50936;51.660;5.616;2023-05-02T05:52:32;101951.72;;;10.57;100.00
64544;BME280;50936;51.660;5.616;2023-05-02T05:55:00;101949.63;;;10.62;100.00
64544;BME280;50936;51.660;5.616;2023-05-02T05:57:28;101963.47;;;10.73;100.00
64544;BME280;50936;51.660;5.616;2023-05-02T05:59:55;101966.63;;;10.82;100.00
64544;BME280;50936;51.660;5.616;2023-05-02T06:02:23;101964.06;;;10.96;100.00
64544;BME280;50936;51.660;5.616;2023-05-02T06:04:50;101963.91;;;10.99;100.00
64544;BME280;50936;51.660;5.616;2023-05-02T06:07:20;101977.91;;;10.90;100.00
64544;BME280;50936;51.660;5.616;2023-05-02T06:09:47;101973.59;;;10.86;100.00
64544;BME280;50936;51.660;5.616;2023-05-02T06:12:14;101976.22;;;10.87;100.00
64544;BME280;50936;51.660;5.616;2023-05-02T06:14:43;101981.06;;;10.81;100.00
64544;BME280;50936;51.660;5.616;2023-05-02T06:17:11;101976.16;;;10.71;100.00
64544;BME280;50936;51.660;5.616;2023-05-02T06:19:37;101985.94;;;10.74;100.00
64544;BME280;50936;51.660;5.616;2023-05-02T06:22:05;101985.09;;;10.73;100.00
64544;BME280;50936;51.660;5.616;2023-05-02T06:24:32;101983.47;;;10.69;100.00
64544;BME280;50936;51.660;5.616;2023-05-02T06:26:59;101998.44;;;10.59;100.00
64544;BME280;50936;51.660;5.616;2023-05-02T06:29:25;102003.97;;;10.56;100.00
64544;BME280;50936;51.660;5.616;2023-05-02T06:31:55;102010.63;;;10.49;100.00
64544;BME280;50936;51.660;5.616;2023-05-02T06:34:22;102019.19;;;10.39;100.00
64544;BME280;50936;51.660;5.616;2023-05-02T06:36:56;102026.66;;;10.34;100.00
64544;BME280;50936;51.660;5.616;2023-05-02T06:39:23;102019.53;;;10.33;100.00
64544;BME280;50936;51.660;5.616;2023-05-02T06:41:50;102030.41;;;10.32;100.00
64544;BME280;50936;51.660;5.616;2023-05-02T06:44:17;102030.56;;;10.27;100.00
64544;BME280;50936;51.660;5.616;2023-05-02T06:46:44;102046.78;;;10.27;100.00
64544;BME280;50936;51.660;5.616;2023-05-02T06:49:11;102053.94;;;10.28;100.00
64544;BME280;50936;51.660;5.616;2023-05-02T06:51:38;102052.16;;;10.27;100.00
64544;BME280;50936;51.660;5.616;2023-05-02T06:54:05;102055.56;;;10.32;100.00
64544;BME280;50936;51.660;5.616;2023-05-02T06:56:32;102054.81;;;10.48;100.00
64544;BME280;50936;51.660;5.616;2023-05-02T06:58:59;102051.41;;;10.62;100.00
64544;BME280;50936;51.660;5.616;2023-05-02T07:01:26;102061.13;;;10.83;100.00
64544;BME280;50936;51.660;5.616;2023-05-02T07:03:53;102058.84;;;11.10;100.00
64544;BME280;50936;51.660;5.616;2023-05-02T07:06:20;102058.50;;;11.16;100.00
64544;BME280;50936;51.660;5.616;2023-05-02T07:08:47;102062.88;;;11.19;99.75
64544;BME280;50936;51.660;5.616;2023-05-02T07:11:14;102067.25;;;11.22;98.66
64544;BME280;50936;51.660;5.616;2023-05-02T07:13:41;102070.19;;;11.17;98.52
64544;BME280;50936;51.660;5.616;2023-05-02T07:16:08;102080.13;;;11.16;97.09
64544;BME280;50936;51.660;5.616;2023-05-02T07:18:35;102085.69;;;11.13;97.00
64544;BME280;50936;51.660;5.616;2023-05-02T07:21:02;102095.66;;;11.13;98.57
64544;BME280;50936;51.660;5.616;2023-05-02T07:23:29;102096.38;;;11.16;98.81
64544;BME280;50936;51.660;5.616;2023-05-02T07:25:56;102099.38;;;11.28;98.45
64544;BME280;50936;51.660;5.616;2023-05-02T07:28:23;102095.56;;;11.32;97.77
64544;BME280;50936;51.660;5.616;2023-05-02T07:30:50;102104.00;;;11.26;98.61
64544;BME280;50936;51.660;5.616;2023-05-02T07:33:17;102105.91;;;11.24;99.10
64544;BME280;50936;51.660;5.616;2023-05-02T07:35:44;102110.25;;;11.26;99.07
64544;BME280;50936;51.660;5.616;2023-05-02T07:38:11;102107.66;;;11.25;98.83
64544;BME280;50936;51.660;5.616;2023-05-02T07:40:38;102107.81;;;11.22;99.99
64544;BME280;50936;51.660;5.616;2023-05-02T07:43:05;102110.25;;;11.26;100.00
64544;BME280;50936;51.660;5.616;2023-05-02T07:45:34;102108.28;;;11.30;100.00
64544;BME280;50936;51.660;5.616;2023-05-02T07:48:01;102118.47;;;11.42;100.00
64544;BME280;50936;51.660;5.616;2023-05-02T07:50:28;102118.13;;;11.48;100.00
64544;BME280;50936;51.660;5.616;2023-05-02T07:52:55;102117.66;;;11.58;99.71
64544;BME280;50936;51.660;5.616;2023-05-02T07:55:22;102117.69;;;11.73;98.25
64544;BME280;50936;51.660;5.616;2023-05-02T07:57:52;102117.13;;;12.02;99.10
64544;BME280;50936;51.660;5.616;2023-05-02T08:00:19;102127.28;;;12.46;96.95
64544;BME280;50936;51.660;5.616;2023-05-02T08:02:46;102126.38;;;12.61;92.22
64544;BME280;50936;51.660;5.616;2023-05-02T08:05:13;102132.66;;;12.62;84.83
64544;BME280;50936;51.660;5.616;2023-05-02T08:07:40;102132.09;;;12.57;83.80
64544;BME280;50936;51.660;5.616;2023-05-02T08:10:08;102132.34;;;12.52;84.43
64544;BME280;50936;51.660;5.616;2023-05-02T08:12:39;102140.56;;;12.50;84.78
64544;BME280;50936;51.660;5.616;2023-05-02T08:15:09;102145.53;;;12.58;85.58
64544;BME280;50936;51.660;5.616;2023-05-02T08:17:38;102137.69;;;12.69;85.37
64544;BME280;50936;51.660;5.616;2023-05-02T08:20:05;102150.88;;;12.76;79.27
64544;BME280;50936;51.660;5.616;2023-05-02T08:22:33;102144.91;;;12.85;76.17
64544;BME280;50936;51.660;5.616;2023-05-02T08:25:00;102143.28;;;12.97;77.02
64544;BME280;50936;51.660;5.616;2023-05-02T08:27:27;102149.56;;;13.13;77.73
64544;BME280;50936;51.660;5.616;2023-05-02T08:29:53;102153.22;;;13.28;77.16
64544;BME280;50936;51.660;5.616;2023-05-02T08:32:22;102157.38;;;13.50;70.04
64544;BME280;50936;51.660;5.616;2023-05-02T08:34:49;102158.75;;;13.57;67.29
64544;BME280;50936;51.660;5.616;2023-05-02T08:37:16;102163.25;;;13.72;63.99
64544;BME280;50936;51.660;5.616;2023-05-02T08:39:43;102163.72;;;13.79;64.56
64544;BME280;50936;51.660;5.616;2023-05-02T08:42:10;102170.84;;;13.96;65.12
64544;BME280;50936;51.660;5.616;2023-05-02T08:44:37;102177.25;;;14.79;65.93
64544;BME280;50936;51.660;5.616;2023-05-02T08:47:04;102165.53;;;15.59;60.56
64544;BME280;50936;51.660;5.616;2023-05-02T08:49:33;102178.19;;;16.11;59.33
64544;BME280;50936;51.660;5.616;2023-05-02T08:52:02;102179.75;;;15.90;51.30
64544;BME280;50936;51.660;5.616;2023-05-02T08:54:30;102184.91;;;15.54;52.27
64544;BME280;50936;51.660;5.616;2023-05-02T08:56:59;102185.63;;;16.09;53.62
64544;BME280;50936;51.660;5.616;2023-05-02T08:59:29;102187.03;;;15.89;52.25
64544;BME280;50936;51.660;5.616;2023-05-02T09:05:11;102195.25;;;14.68;58.21
64544;BME280;50936;51.660;5.616;2023-05-02T09:07:47;102193.53;;;14.23;61.74
64544;BME280;50936;51.660;5.616;2023-05-02T09:10:14;102209.50;;;13.85;64.67
64544;BME280;50936;51.660;5.616;2023-05-02T09:12:41;102200.44;;;13.56;66.13
64544;BME280;50936;51.660;5.616;2023-05-02T09:15:13;102206.91;;;13.53;67.35
64544;BME280;50936;51.660;5.616;2023-05-02T09:17:46;102211.63;;;13.50;67.85
64544;BME280;50936;51.660;5.616;2023-05-02T09:20:15;102211.72;;;13.48;68.45
64544;BME280;50936;51.660;5.616;2023-05-02T09:22:50;102214.28;;;13.51;65.63
64544;BME280;50936;51.660;5.616;2023-05-02T09:25:19;102226.91;;;13.36;66.14
64544;BME280;50936;51.660;5.616;2023-05-02T09:27:51;102226.22;;;13.33;66.16
64544;BME280;50936;51.660;5.616;2023-05-02T09:30:24;102230.25;;;13.41;66.42
64544;BME280;50936;51.660;5.616;2023-05-02T09:32:52;102225.38;;;13.77;64.08
64544;BME280;50936;51.660;5.616;2023-05-02T09:35:21;102235.81;;;13.99;64.81
64544;BME280;50936;51.660;5.616;2023-05-02T09:37:53;102235.66;;;14.31;65.62
64544;BME280;50936;51.660;5.616;2023-05-02T09:40:22;102243.03;;;14.57;64.32
64544;BME280;50936;51.660;5.616;2023-05-02T09:42:51;102241.06;;;14.88;60.50
64544;BME280;50936;51.660;5.616;2023-05-02T09:45:25;102245.88;;;14.97;58.21
64544;BME280;50936;51.660;5.616;2023-05-02T09:47:52;102244.97;;;14.70;59.88
64544;BME280;50936;51.660;5.616;2023-05-02T09:50:34;102247.09;;;14.50;60.32
64544;BME280;50936;51.660;5.616;2023-05-02T09:53:06;102242.44;;;14.38;58.88
64544;BME280;50936;51.660;5.616;2023-05-02T09:55:35;102243.91;;;14.29;60.15
64544;BME280;50936;51.660;5.616;2023-05-02T09:58:02;102255.63;;;14.15;60.64
64544;BME280;50936;51.660;5.616;2023-05-02T10:00:49;102246.31;;;14.05;57.92
64544;BME280;50936;51.660;5.616;2023-05-02T10:03:18;102249.47;;;13.97;58.71
64544;BME280;50936;51.660;5.616;2023-05-02T10:05:45;102254.84;;;14.13;58.54
64544;BME280;50936;51.660;5.616;2023-05-02T10:08:15;102256.50;;;14.16;56.90
64544;BME280;50936;51.660;5.616;2023-05-02T10:10:56;102249.41;;;14.13;56.84
64544;BME280;50936;51.660;5.616;2023-05-02T10:13:26;102251.19;;;14.57;58.43
64544;BME280;50936;51.660;5.616;2023-05-02T10:16:05;102252.47;;;15.08;55.99
64544;BME280;50936;51.660;5.616;2023-05-02T10:18:47;102257.28;;;15.31;55.86
64544;BME280;50936;51.660;5.616;2023-05-02T10:21:24;102258.88;;;15.61;53.87
64544;BME280;50936;51.660;5.616;2023-05-02T10:23:55;102263.66;;;15.57;51.58
64544;BME280;50936;51.660;5.616;2023-05-02T10:26:22;102269.41;;;15.53;51.89
64544;BME280;50936;51.660;5.616;2023-05-02T10:28:51;102270.50;;;15.77;53.65
64544;BME280;50936;51.660;5.616;2023-05-02T10:31:19;102273.47;;;16.13;52.67
64544;BME280;50936;51.660;5.616;2023-05-02T10:33:50;102264.34;;;16.01;50.60
64544;BME280;50936;51.660;5.616;2023-05-02T10:36:21;102266.94;;;15.90;51.41
64544;BME280;50936;51.660;5.616;2023-05-02T10:38:49;102268.03;;;16.00;51.86
64544;BME280;50936;51.660;5.616;2023-05-02T10:41:23;102274.13;;;16.04;51.95
64544;BME280;50936;51.660;5.616;2023-05-02T10:43:52;102270.84;;;16.11;49.26
64544;BME280;50936;51.660;5.616;2023-05-02T10:46:32;102269.78;;;16.27;49.70
64544;BME280;50936;51.660;5.616;2023-05-02T10:49:04;102269.53;;;16.68;48.33
64544;BME280;50936;51.660;5.616;2023-05-02T10:51:36;102278.81;;;17.16;46.72
64544;BME280;50936;51.660;5.616;2023-05-02T10:59:29;102279.84;;;17.39;44.97
64544;BME280;50936;51.660;5.616;2023-05-02T11:07:36;102272.50;;;17.15;43.53
64544;BME280;50936;51.660;5.616;2023-05-02T11:12:46;102271.75;;;16.25;46.66
64544;BME280;50936;51.660;5.616;2023-05-02T11:18:12;102287.00;;;16.14;46.24
64544;BME280;50936;51.660;5.616;2023-05-02T11:20:43;102283.94;;;16.19;47.05
64544;BME280;50936;51.660;5.616;2023-05-02T11:25:54;102290.59;;;16.53;44.42
64544;BME280;50936;51.660;5.616;2023-05-02T11:28:40;102287.22;;;16.37;45.90
64544;BME280;50936;51.660;5.616;2023-05-02T11:34:01;102283.78;;;16.98;44.87
64544;BME280;50936;51.660;5.616;2023-05-02T11:36:29;102283.66;;;17.60;42.09
64544;BME280;50936;51.660;5.616;2023-05-02T11:39:00;102287.94;;;17.76;39.96
64544;BME280;50936;51.660;5.616;2023-05-02T11:41:40;102284.16;;;17.65;40.09
64544;BME280;50936;51.660;5.616;2023-05-02T11:44:08;102268.38;;;17.93;39.80
64544;BME280;50936;51.660;5.616;2023-05-02T11:46:36;102272.91;;;18.05;39.69
64544;BME280;50936;51.660;5.616;2023-05-02T11:49:05;102282.47;;;17.76;38.98
64544;BME280;50936;51.660;5.616;2023-05-02T11:51:35;102277.16;;;17.50;39.87
64544;BME280;50936;51.660;5.616;2023-05-02T11:54:02;102277.16;;;17.50;41.50
64544;BME280;50936;51.660;5.616;2023-05-02T11:56:33;102286.19;;;17.75;41.19
64544;BME280;50936;51.660;5.616;2023-05-02T11:59:01;102290.00;;;17.85;40.09
64544;BME280;50936;51.660;5.616;2023-05-02T12:01:29;102290.03;;;17.96;40.95
64544;BME280;50936;51.660;5.616;2023-05-02T12:04:04;102288.88;;;18.57;40.08
64544;BME280;50936;51.660;5.616;2023-05-02T12:06:35;102295.94;;;19.16;38.16
64544;BME280;50936;51.660;5.616;2023-05-02T12:09:09;102300.88;;;19.45;38.59
64544;BME280;50936;51.660;5.616;2023-05-02T12:11:39;102299.91;;;19.67;36.26
64544;BME280;50936;51.660;5.616;2023-05-02T12:14:06;102311.88;;;19.77;38.09
64544;BME280;50936;51.660;5.616;2023-05-02T12:16:34;102311.56;;;19.91;37.06
64544;BME280;50936;51.660;5.616;2023-05-02T12:19:01;102307.03;;;19.69;36.17
64544;BME280;50936;51.660;5.616;2023-05-02T12:21:30;102301.25;;;19.51;36.69
64544;BME280;50936;51.660;5.616;2023-05-02T12:24:00;102310.69;;;19.58;37.64
64544;BME280;50936;51.660;5.616;2023-05-02T12:26:27;102314.03;;;19.94;35.62
64544;BME280;50936;51.660;5.616;2023-05-02T12:28:59;102312.56;;;20.32;36.39
64544;BME280;50936;51.660;5.616;2023-05-02T12:31:28;102306.06;;;20.75;37.17
64544;BME280;50936;51.660;5.616;2023-05-02T12:33:57;102315.41;;;21.13;33.34
64544;BME280;50936;51.660;5.616;2023-05-02T12:36:27;102316.63;;;20.90;32.82
64544;BME280;50936;51.660;5.616;2023-05-02T12:38:56;102321.19;;;20.70;32.86
64544;BME280;50936;51.660;5.616;2023-05-02T12:41:30;102320.81;;;20.32;33.71
64544;BME280;50936;51.660;5.616;2023-05-02T12:44:02;102320.28;;;20.17;34.94
64544;BME280;50936;51.660;5.616;2023-05-02T12:46:29;102317.19;;;20.32;34.94
64544;BME280;50936;51.660;5.616;2023-05-02T12:49:08;102320.47;;;20.47;34.93
64544;BME280;50936;51.660;5.616;2023-05-02T12:51:38;102321.41;;;20.57;34.93
64544;BME280;50936;51.660;5.616;2023-05-02T12:54:06;102330.63;;;20.56;34.93
64544;BME280;50936;51.660;5.616;2023-05-02T12:56:40;102327.75;;;20.36;34.38
64544;BME280;50936;51.660;5.616;2023-05-02T12:59:23;102344.34;;;20.14;33.73
64544;BME280;50936;51.660;5.616;2023-05-02T13:01:52;102348.31;;;20.21;35.04
64544;BME280;50936;51.660;5.616;2023-05-02T13:04:19;102350.44;;;20.38;35.13
64544;BME280;50936;51.660;5.616;2023-05-02T13:06:46;102351.53;;;20.68;34.75
64544;BME280;50936;51.660;5.616;2023-05-02T13:09:13;102338.59;;;20.90;34.31
64544;BME280;50936;51.660;5.616;2023-05-02T13:11:40;102336.66;;;21.11;34.80
64544;BME280;50936;51.660;5.616;2023-05-02T13:14:08;102352.56;;;21.08;33.58
64544;BME280;50936;51.660;5.616;2023-05-02T13:16:36;102350.41;;;20.81;33.75
64544;BME280;50936;51.660;5.616;2023-05-02T13:19:04;102346.94;;;20.79;33.15
64544;BME280;50936;51.660;5.616;2023-05-02T13:21:31;102334.72;;;20.62;33.37
64544;BME280;50936;51.660;5.616;2023-05-02T13:23:58;102342.19;;;20.60;33.36
64544;BME280;50936;51.660;5.616;2023-05-02T13:26:24;102339.94;;;20.65;33.19
64544;BME280;50936;51.660;5.616;2023-05-02T13:28:51;102338.16;;;20.85;33.86
64544;BME280;50936;51.660;5.616;2023-05-02T13:31:18;102338.16;;;21.15;34.21
64544;BME280;50936;51.660;5.616;2023-05-02T13:33:45;102339.47;;;21.31;33.06
64544;BME280;50936;51.660;5.616;2023-05-02T13:36:12;102341.88;;;21.14;32.67
64544;BME280;50936;51.660;5.616;2023-05-02T13:38:39;102341.31;;;21.21;33.23
64544;BME280;50936;51.660;5.616;2023-05-02T13:41:05;102341.31;;;21.21;32.00
64544;BME280;50936;51.660;5.616;2023-05-02T13:43:32;102334.97;;;21.20;33.14
64544;BME280;50936;51.660;5.616;2023-05-02T13:45:59;102339.34;;;21.42;32.50
64544;BME280;50936;51.660;5.616;2023-05-02T13:48:26;102336.69;;;21.62;32.54